BCS93A GMTT-LFPG
Flight info
| Callsign | BCS93A |
|---|---|
| Flight time | N/A |
| Altitude | 36000 |
| Route | NOLRO DCT ADKIM Z53 VJF N10 HIJ DCT RUSEM DCT SOTUK DCT USOKO DCT TLD DCT SIE DCT EDIGO DCT DGO L176 LUSEM DCT LULUT DCT POI DCT PEPAX UT182 KEPER |
| Aircraft | A306/H-SDE3FGHIRWY/LB1 |
Departure
| Time | 2026-05-07 22:53 |
|---|---|
| Airport | Tangier Ibn Battuta Airport (GMTT) |
Arrival
| Time | N/A |
|---|---|
| Airport | Charles de Gaulle International Airport (LFPG) |
| Time | Latitude | Longitude | Altitude | Speed | Heading |
|---|---|---|---|---|---|
| 2026-05-07 22:12 | 35.72646 | -5.91609 | 63 ft | 0 kts | 86° |
| 2026-05-07 22:46 | 35.72645 | -5.91615 | 66 ft | 4 kts | 84° |
| 2026-05-07 22:46 | 35.72640 | -5.91646 | 56 ft | 4 kts | 62° |
| 2026-05-07 22:47 | 35.72625 | -5.91672 | 56 ft | 4 kts | 38° |
| 2026-05-07 22:47 | 35.72602 | -5.91689 | 56 ft | 4 kts | 16° |
| 2026-05-07 22:47 | 35.72580 | -5.91694 | 58 ft | 1 kts | 356° |
| 2026-05-07 22:47 | 35.72579 | -5.91693 | 58 ft | 1 kts | 356° |
| 2026-05-07 22:49 | 35.72590 | -5.91694 | 58 ft | 8 kts | 356° |
| 2026-05-07 22:49 | 35.72715 | -5.91706 | 66 ft | 25 kts | 355° |
| 2026-05-07 22:50 | 35.72906 | -5.91716 | 66 ft | 12 kts | 18° |
| 2026-05-07 22:50 | 35.72931 | -5.91638 | 59 ft | 11 kts | 89° |
| 2026-05-07 22:50 | 35.72927 | -5.91529 | 59 ft | 17 kts | 90° |
| 2026-05-07 22:50 | 35.72911 | -5.91340 | 66 ft | 26 kts | 89° |
| 2026-05-07 22:51 | 35.72886 | -5.91075 | 58 ft | 36 kts | 98° |
| 2026-05-07 22:51 | 35.72851 | -5.90729 | 61 ft | 44 kts | 93° |
| 2026-05-07 22:51 | 35.72817 | -5.90333 | 59 ft | 42 kts | 88° |
| 2026-05-07 22:51 | 35.72929 | -5.90189 | 58 ft | 19 kts | 343° |
| 2026-05-07 22:52 | 35.72993 | -5.90320 | 64 ft | 25 kts | 274° |
| 2026-05-07 22:52 | 35.73039 | -5.90795 | 62 ft | 91 kts | 277° |
| 2026-05-07 22:52 | 35.73137 | -5.91852 | 62 ft | 156 kts | 276° |
| 2026-05-07 22:52 | 35.73268 | -5.93416 | 366 ft | 202 kts | 275° |
| 2026-05-07 22:53 | 35.73427 | -5.95147 | 1524 ft | 203 kts | 277° |
| 2026-05-07 22:53 | 35.73657 | -5.96839 | 2569 ft | 203 kts | 280° |
| 2026-05-07 22:53 | 35.73864 | -5.98680 | 2740 ft | 236 kts | 270° |
| 2026-05-07 22:53 | 35.73614 | -6.00768 | 3186 ft | 250 kts | 247° |
| 2026-05-07 22:54 | 35.72572 | -6.02431 | 4069 ft | 247 kts | 214° |
| 2026-05-07 22:54 | 35.70986 | -6.03145 | 5068 ft | 241 kts | 185° |
| 2026-05-07 22:54 | 35.69350 | -6.03005 | 6034 ft | 241 kts | 165° |
| 2026-05-07 22:54 | 35.67821 | -6.02035 | 6572 ft | 259 kts | 138° |
| 2026-05-07 22:55 | 35.66953 | -6.00032 | 7026 ft | 279 kts | 99° |
| 2026-05-07 22:55 | 35.67121 | -5.97666 | 7942 ft | 277 kts | 81° |
| 2026-05-07 22:55 | 35.67436 | -5.95329 | 8788 ft | 282 kts | 83° |
| 2026-05-07 22:55 | 35.67844 | -5.92933 | 9546 ft | 286 kts | 72° |
| 2026-05-07 22:56 | 35.68598 | -5.90727 | 10624 ft | 272 kts | 64° |
| 2026-05-07 22:56 | 35.69423 | -5.88618 | 11299 ft | 282 kts | 67° |
| 2026-05-07 22:56 | 35.70276 | -5.86392 | 11820 ft | 290 kts | 65° |
| 2026-05-07 22:56 | 35.71123 | -5.84040 | 11877 ft | 318 kts | 70° |
| 2026-05-07 22:57 | 35.71994 | -5.81459 | 12131 ft | 336 kts | 63° |
| 2026-05-07 22:57 | 35.73283 | -5.78971 | 12405 ft | 353 kts | 52° |
| 2026-05-07 22:57 | 35.75070 | -5.76816 | 12659 ft | 368 kts | 34° |
| 2026-05-07 22:57 | 35.77453 | -5.75540 | 12909 ft | 381 kts | 11° |
| 2026-05-07 22:58 | 35.80125 | -5.75458 | 13237 ft | 389 kts | 349° |
| 2026-05-07 22:58 | 35.82721 | -5.76316 | 13731 ft | 392 kts | 338° |
| 2026-05-07 22:58 | 35.85247 | -5.77618 | 14229 ft | 396 kts | 333° |
| 2026-05-07 22:58 | 35.87745 | -5.79081 | 14763 ft | 399 kts | 332° |
| 2026-05-07 22:59 | 35.90264 | -5.80561 | 15316 ft | 402 kts | 332° |
| 2026-05-07 22:59 | 35.92899 | -5.81828 | 15857 ft | 409 kts | 341° |
| 2026-05-07 22:59 | 35.95724 | -5.82384 | 16399 ft | 417 kts | 356° |
| 2026-05-07 22:59 | 35.98637 | -5.82156 | 16963 ft | 422 kts | 5° |
| 2026-05-07 23:00 | 36.01557 | -5.81566 | 17513 ft | 426 kts | 9° |
| 2026-05-07 23:00 | 36.04435 | -5.80787 | 18029 ft | 430 kts | 11° |
| 2026-05-07 23:00 | 36.07357 | -5.79909 | 18503 ft | 434 kts | 12° |
| 2026-05-07 23:00 | 36.10304 | -5.79008 | 18949 ft | 437 kts | 12° |
| 2026-05-07 23:01 | 36.13263 | -5.78119 | 19394 ft | 440 kts | 11° |
| 2026-05-07 23:01 | 36.16269 | -5.77242 | 19824 ft | 443 kts | 11° |
| 2026-05-07 23:01 | 36.19285 | -5.76382 | 20246 ft | 446 kts | 10° |
| 2026-05-07 23:01 | 36.22281 | -5.75542 | 20649 ft | 449 kts | 10° |
| 2026-05-07 23:02 | 36.25345 | -5.74689 | 21078 ft | 451 kts | 10° |
| 2026-05-07 23:02 | 36.28421 | -5.73834 | 21491 ft | 454 kts | 10° |
| 2026-05-07 23:02 | 36.31521 | -5.72974 | 21884 ft | 457 kts | 10° |
| 2026-05-07 23:02 | 36.34636 | -5.72109 | 22273 ft | 461 kts | 9° |
| 2026-05-07 23:03 | 36.37791 | -5.71231 | 22644 ft | 464 kts | 9° |
| 2026-05-07 23:03 | 36.40920 | -5.70358 | 23034 ft | 467 kts | 9° |
| 2026-05-07 23:03 | 36.44099 | -5.69469 | 23393 ft | 470 kts | 9° |
| 2026-05-07 23:03 | 36.47296 | -5.68573 | 23718 ft | 472 kts | 9° |
| 2026-05-07 23:04 | 36.50515 | -5.67671 | 24013 ft | 475 kts | 9° |
| 2026-05-07 23:04 | 36.53747 | -5.66764 | 24322 ft | 477 kts | 9° |
| 2026-05-07 23:04 | 36.56995 | -5.65851 | 24596 ft | 480 kts | 9° |
| 2026-05-07 23:04 | 36.60272 | -5.64930 | 24859 ft | 482 kts | 9° |
| 2026-05-07 23:05 | 36.63549 | -5.64010 | 25147 ft | 484 kts | 9° |
| 2026-05-07 23:05 | 36.66842 | -5.63084 | 25422 ft | 486 kts | 9° |
| 2026-05-07 23:05 | 36.70157 | -5.62151 | 25708 ft | 489 kts | 9° |
| 2026-05-07 23:05 | 36.73484 | -5.61214 | 25988 ft | 491 kts | 10° |
| 2026-05-07 23:06 | 36.76816 | -5.60274 | 26234 ft | 493 kts | 9° |
| 2026-05-07 23:06 | 36.80129 | -5.59339 | 26493 ft | 495 kts | 10° |
| 2026-05-07 23:06 | 36.83507 | -5.58384 | 26750 ft | 497 kts | 10° |
| 2026-05-07 23:06 | 36.86882 | -5.57429 | 26985 ft | 499 kts | 10° |
| 2026-05-07 23:07 | 36.90275 | -5.56468 | 27222 ft | 501 kts | 10° |
| 2026-05-07 23:07 | 36.93684 | -5.55502 | 27463 ft | 502 kts | 10° |
| 2026-05-07 23:07 | 36.97098 | -5.54534 | 27687 ft | 504 kts | 10° |
| 2026-05-07 23:07 | 37.00542 | -5.53556 | 27948 ft | 505 kts | 10° |
| 2026-05-07 23:08 | 37.03969 | -5.52581 | 28272 ft | 505 kts | 10° |
| 2026-05-07 23:08 | 37.07391 | -5.51606 | 28625 ft | 504 kts | 10° |
| 2026-05-07 23:08 | 37.10770 | -5.50644 | 28944 ft | 504 kts | 9° |
| 2026-05-07 23:08 | 37.14190 | -5.49670 | 29267 ft | 503 kts | 9° |
| 2026-05-07 23:09 | 37.17609 | -5.48694 | 29583 ft | 503 kts | 9° |
| 2026-05-07 23:09 | 37.21022 | -5.47720 | 29913 ft | 502 kts | 9° |
| 2026-05-07 23:09 | 37.24431 | -5.46745 | 30188 ft | 502 kts | 9° |
| 2026-05-07 23:09 | 37.27845 | -5.45768 | 30446 ft | 502 kts | 9° |
| 2026-05-07 23:10 | 37.31248 | -5.44794 | 30693 ft | 502 kts | 9° |
| 2026-05-07 23:10 | 37.34662 | -5.43816 | 30936 ft | 503 kts | 9° |
| 2026-05-07 23:10 | 37.38039 | -5.42848 | 31184 ft | 503 kts | 9° |
| 2026-05-07 23:10 | 37.41443 | -5.41871 | 31440 ft | 503 kts | 9° |
| 2026-05-07 23:11 | 37.44857 | -5.40890 | 31673 ft | 503 kts | 9° |
| 2026-05-07 23:11 | 37.48270 | -5.39908 | 31921 ft | 503 kts | 9° |
| 2026-05-07 23:11 | 37.51687 | -5.38924 | 32177 ft | 503 kts | 9° |
| 2026-05-07 23:11 | 37.55101 | -5.37940 | 32416 ft | 502 kts | 9° |
| 2026-05-07 23:12 | 37.58503 | -5.36959 | 32652 ft | 503 kts | 9° |
| 2026-05-07 23:12 | 37.61913 | -5.35975 | 32899 ft | 502 kts | 9° |
| 2026-05-07 23:12 | 37.65326 | -5.34988 | 33128 ft | 502 kts | 9° |
| 2026-05-07 23:12 | 37.68747 | -5.33999 | 33358 ft | 502 kts | 9° |
| 2026-05-07 23:13 | 37.72147 | -5.33015 | 33589 ft | 502 kts | 9° |
| 2026-05-07 23:13 | 37.75509 | -5.32041 | 33829 ft | 502 kts | 9° |
| 2026-05-07 23:13 | 37.78931 | -5.31048 | 33947 ft | 502 kts | 9° |
| 2026-05-07 23:14 | 37.85723 | -5.29073 | 33951 ft | 499 kts | 9° |
| 2026-05-07 23:14 | 37.92452 | -5.27115 | 33955 ft | 499 kts | 9° |
| 2026-05-07 23:15 | 37.99236 | -5.25138 | 33949 ft | 499 kts | 9° |
| 2026-05-07 23:15 | 38.06008 | -5.23161 | 33950 ft | 499 kts | 9° |
| 2026-05-07 23:16 | 38.12780 | -5.21180 | 33949 ft | 499 kts | 9° |
| 2026-05-07 23:16 | 38.19524 | -5.19202 | 33939 ft | 499 kts | 10° |
| 2026-05-07 23:17 | 38.26290 | -5.17212 | 33946 ft | 500 kts | 9° |
| 2026-05-07 23:17 | 38.33076 | -5.15215 | 33943 ft | 500 kts | 9° |
| 2026-05-07 23:18 | 38.39860 | -5.13214 | 33938 ft | 500 kts | 9° |
| 2026-05-07 23:18 | 38.46637 | -5.11213 | 33937 ft | 500 kts | 9° |
| 2026-05-07 23:19 | 38.53305 | -5.08652 | 33939 ft | 502 kts | 18° |
| 2026-05-07 23:19 | 38.56536 | -5.07083 | 33669 ft | 503 kts | 17° |
| 2026-05-07 23:19 | 38.59790 | -5.05444 | 33906 ft | 502 kts | 18° |
| 2026-05-07 23:20 | 38.66309 | -5.02093 | 33934 ft | 506 kts | 18° |
| 2026-05-07 23:20 | 38.72849 | -4.98715 | 33930 ft | 506 kts | 18° |
| 2026-05-07 23:21 | 38.79375 | -4.95349 | 33923 ft | 505 kts | 18° |
| 2026-05-07 23:21 | 38.85905 | -4.91985 | 33928 ft | 505 kts | 18° |
| 2026-05-07 23:22 | 38.92379 | -4.88646 | 33928 ft | 504 kts | 17° |
| 2026-05-07 23:22 | 38.98886 | -4.85282 | 33922 ft | 503 kts | 17° |
| 2026-05-07 23:23 | 39.05399 | -4.81908 | 33923 ft | 503 kts | 17° |
| 2026-05-07 23:23 | 39.11887 | -4.78542 | 33923 ft | 502 kts | 17° |
| 2026-05-07 23:24 | 39.18340 | -4.75183 | 33926 ft | 502 kts | 17° |
| 2026-05-07 23:24 | 39.24825 | -4.71804 | 33933 ft | 501 kts | 17° |
| 2026-05-07 23:25 | 39.31285 | -4.68433 | 33927 ft | 500 kts | 17° |
| 2026-05-07 23:25 | 39.37700 | -4.65079 | 33933 ft | 500 kts | 17° |
| 2026-05-07 23:26 | 39.44160 | -4.61693 | 33933 ft | 499 kts | 17° |
| 2026-05-07 23:26 | 39.44924 | -4.61292 | 33933 ft | 499 kts | 17° |